KOZR/OZR METAR and TAF weather

Enter ICAO airport designator
Station Type Date Time Source
KOZR METAR 2019/11/14 03:56 UTC NOAA

KOZR 140356Z AUTO 05005KT 10SM FEW028 04/M01 A3025 RMK AO2 SLP248 T00391015


Station Type Date Time Source
KOZR Decoded METAR 2019/11/14 03:56 UTC NOAA

Cairns Army Air Field / Ozark, AL, United States (KOZR) 31-17N 085-43W
Nov 13, 2019 - 10:56 PM EST / 2019.11.14 0356 UTC
Wind: from the NE (050 degrees) at 6 MPH (5 KT):0
Visibility: 10 mile(s):0
Sky conditions: mostly clear
Temperature: 39.0 F (3.9 C)
Dew Point: 29.3 F (-1.5 C)
Relative Humidity: 67%
Pressure (altimeter): 30.25 in. Hg (1024 hPa)
ob: KOZR 140356Z AUTO 05005KT 10SM FEW028 04/M01 A3025 RMK AO2 SLP248 T00391015
cycle: 4

Station Type Date Time Source
KOZR TAF 2019/11/14 00:39 UTC NOAA

TAF KOZR 140000Z 1400/1506 05009KT 9999 SCT250 QNH3019INS
BECMG 1411/1412 VRB06KT 9999 BKN025 QNH3021INS
BECMG 1420/1421 01012KT 9000 DZ BKN010 QNH3015INS
BECMG 1423/1424 36012KT 8000 -RA OVC003 QNH3013INS TX12/1419Z TN02/1405Z

Example: see airport list